Time;durP1;ratioP1;P1;durP2;ratioP2;P2;SDS_P1;SDS_P2;PMS_P1;PMS_P2;Temp;Humidity;BMP_temperature;BMP_pressure;BME280_temperature;BME280_humidity;BME280_pressure;Samples;Min_cycle;Max_cycle;Signal;HPM_P1;HPM_P2
2022/03/14 00:00:12;;;;;;;24.20;23.30;;;19.90;45.40;;;;;;5073541;28;20444;-44
2022/03/14 00:02:39;;;;;;;23.80;22.93;;;19.90;45.50;;;;;;5073062;28;20486;-46
2022/03/14 00:05:06;;;;;;;22.30;21.40;;;19.90;45.50;;;;;;5073495;28;20464;-44
2022/03/14 00:07:36;;;;;;;23.50;22.60;;;19.90;45.60;;;;;;5073397;28;20443;-44
2022/03/14 00:10:04;;;;;;;22.90;22.03;;;19.90;45.50;;;;;;5073372;28;20455;-49
2022/03/14 00:12:31;;;;;;;23.93;22.83;;;19.90;45.50;;;;;;5073002;28;20446;-45
2022/03/14 00:14:59;;;;;;;23.10;22.10;;;19.90;45.50;;;;;;5073610;28;20486;-44
2022/03/14 00:17:26;;;;;;;24.10;23.20;;;19.90;45.50;;;;;;5073204;28;20444;-44
2022/03/14 00:19:54;;;;;;;21.97;21.17;;;19.90;45.50;;;;;;5073176;28;20539;-45
2022/03/14 00:22:21;;;;;;;23.53;22.40;;;19.90;45.50;;;;;;5072786;28;20922;-46
2022/03/14 00:24:48;;;;;;;23.60;22.77;;;19.90;45.50;;;;;;5072876;28;20986;-44
2022/03/14 00:27:16;;;;;;;22.97;22.17;;;19.90;45.50;;;;;;5073001;28;20927;-47
2022/03/14 00:29:43;;;;;;;24.30;23.37;;;19.90;45.50;;;;;;5072932;28;20470;-45
2022/03/14 00:32:10;;;;;;;23.10;22.30;;;19.90;45.40;;;;;;5072571;28;20439;-44
2022/03/14 00:34:37;;;;;;;23.53;22.73;;;19.90;45.40;;;;;;5072570;28;20832;-44
2022/03/14 00:37:04;;;;;;;23.33;22.40;;;19.90;45.50;;;;;;5072809;28;20450;-45
2022/03/14 00:39:30;;;;;;;23.80;22.97;;;19.90;45.50;;;;;;5072867;28;20455;-44
2022/03/14 00:41:57;;;;;;;22.80;22.00;;;19.90;45.60;;;;;;5072500;28;20490;-48
2022/03/14 00:44:26;;;;;;;23.30;22.40;;;19.90;45.60;;;;;;5072448;28;20790;-45
2022/03/14 00:46:52;;;;;;;23.47;22.57;;;19.90;45.60;;;;;;5072631;28;20451;-45
2022/03/14 00:49:19;;;;;;;23.73;22.83;;;19.90;45.60;;;;;;5072723;28;20443;-44
2022/03/14 00:51:46;;;;;;;23.23;22.43;;;19.80;45.50;;;;;;5072199;28;20806;-45
2022/03/14 00:54:12;;;;;;;22.27;21.47;;;19.80;45.60;;;;;;5072261;28;20459;-45
2022/03/14 00:56:39;;;;;;;22.70;21.90;;;19.80;45.70;;;;;;5072571;28;20529;-44
2022/03/14 00:59:06;;;;;;;23.20;22.30;;;19.80;45.70;;;;;;5072377;28;20819;-45
2022/03/14 01:01:34;;;;;;;21.83;20.70;;;19.80;45.70;;;;;;5071892;28;20478;-44
2022/03/14 01:04:01;;;;;;;21.27;20.53;;;19.80;45.80;;;;;;5072092;28;20474;-44
2022/03/14 01:06:29;;;;;;;21.57;20.77;;;19.70;45.70;;;;;;5072169;28;20447;-44
2022/03/14 01:08:55;;;;;;;21.47;20.77;;;19.70;45.80;;;;;;5072223;28;20454;-44
2022/03/14 01:11:22;;;;;;;24.00;23.10;;;19.70;45.90;;;;;;5071872;28;20451;-48
2022/03/14 01:13:49;;;;;;;23.10;22.20;;;19.70;45.90;;;;;;5071654;28;20986;-50
2022/03/14 01:16:15;;;;;;;21.70;20.90;;;19.70;46.00;;;;;;5072086;28;20803;-44
2022/03/14 01:18:44;;;;;;;23.20;22.40;;;19.70;46.00;;;;;;5071996;28;20782;-47
2022/03/14 01:21:10;;;;;;;23.83;22.93;;;19.70;45.90;;;;;;5071654;28;20443;-47
2022/03/14 01:23:37;;;;;;;23.70;22.80;;;19.70;45.90;;;;;;5071684;28;20973;-44
2022/03/14 01:26:06;;;;;;;22.30;21.50;;;19.70;45.90;;;;;;5071853;28;20466;-44
2022/03/14 01:28:33;;;;;;;21.50;20.70;;;19.70;45.90;;;;;;5071959;28;20469;-45
2022/03/14 01:31:00;;;;;;;22.30;21.50;;;19.70;45.90;;;;;;5071587;28;20450;-44
2022/03/14 01:33:27;;;;;;;21.33;20.53;;;19.70;45.80;;;;;;5071687;28;20458;-50
2022/03/14 01:35:55;;;;;;;22.30;21.50;;;19.70;45.90;;;;;;5071787;28;20974;-45
2022/03/14 01:38:21;;;;;;;22.80;22.00;;;19.70;45.90;;;;;;5071806;28;20969;-46
2022/03/14 01:40:48;;;;;;;22.30;21.50;;;19.70;45.90;;;;;;5071386;28;20444;-44
2022/03/14 01:43:16;;;;;;;23.13;22.33;;;19.70;46.00;;;;;;5071578;28;20494;-47
2022/03/14 01:45:46;;;;;;;22.80;22.00;;;19.70;45.90;;;;;;5071732;28;20451;-50
2022/03/14 01:48:13;;;;;;;22.20;21.40;;;19.70;46.00;;;;;;5071642;28;20483;-44
2022/03/14 01:50:40;;;;;;;22.80;22.00;;;19.70;46.00;;;;;;5071343;28;20451;-45
2022/03/14 01:53:09;;;;;;;23.20;22.40;;;19.60;46.10;;;;;;5071152;28;20440;-44
2022/03/14 01:55:36;;;;;;;23.03;22.23;;;19.50;46.30;;;;;;5071674;28;20459;-45
2022/03/14 01:58:03;;;;;;;22.20;21.40;;;19.50;46.40;;;;;;5071253;28;20484;-44
2022/03/14 02:00:31;;;;;;;22.50;21.70;;;19.50;46.50;;;;;;5071235;28;20443;-44
2022/03/14 02:02:58;;;;;;;22.97;22.17;;;19.60;46.60;;;;;;5071298;28;20513;-46
2022/03/14 02:05:25;;;;;;;22.47;21.67;;;19.60;46.70;;;;;;5071465;28;20458;-45
2022/03/14 02:07:52;;;;;;;22.30;21.50;;;19.60;46.70;;;;;;5071509;28;20450;-50
2022/03/14 02:10:20;;;;;;;22.00;21.20;;;19.60;46.80;;;;;;5071203;28;20451;-44
2022/03/14 02:12:47;;;;;;;22.70;21.90;;;19.60;46.70;;;;;;5071137;28;20804;-44
2022/03/14 02:15:14;;;;;;;22.90;22.10;;;19.60;46.70;;;;;;5071347;28;20475;-51
2022/03/14 02:17:41;;;;;;;22.20;21.40;;;19.60;46.80;;;;;;5071393;28;20439;-44
2022/03/14 02:20:10;;;;;;;22.13;21.33;;;19.60;46.80;;;;;;5071139;28;20443;-48
2022/03/14 02:22:37;;;;;;;22.10;21.30;;;19.60;46.80;;;;;;5071181;28;20562;-45
2022/03/14 02:25:09;;;;;;;22.33;21.53;;;19.60;46.80;;;;;;5071228;28;20467;-48
2022/03/14 02:27:36;;;;;;;22.53;21.73;;;19.60;46.80;;;;;;5071473;28;20439;-51
2022/03/14 02:30:04;;;;;;;22.60;21.80;;;19.60;46.80;;;;;;5070979;28;20444;-44
2022/03/14 02:32:30;;;;;;;22.20;21.40;;;19.60;46.80;;;;;;5071158;28;20439;-45
2022/03/14 02:34:57;;;;;;;21.60;20.80;;;19.60;46.80;;;;;;5070963;28;20462;-44
2022/03/14 02:37:26;;;;;;;21.60;20.80;;;19.60;46.70;;;;;;5071160;28;20447;-44
2022/03/14 02:39:52;;;;;;;22.47;21.63;;;19.60;46.70;;;;;;5070625;28;20525;-46
2022/03/14 02:42:19;;;;;;;23.43;22.53;;;19.60;46.60;;;;;;5070838;28;20475;-44
2022/03/14 02:44:46;;;;;;;22.23;21.43;;;19.60;46.70;;;;;;5070846;28;20474;-45
2022/03/14 02:47:13;;;;;;;22.07;21.27;;;19.60;46.70;;;;;;5070752;28;20803;-46
2022/03/14 02:49:40;;;;;;;23.60;22.53;;;19.60;46.70;;;;;;5071119;28;20447;-44
2022/03/14 02:52:08;;;;;;;22.97;22.13;;;19.60;46.70;;;;;;5070914;28;20440;-45
2022/03/14 02:54:36;;;;;;;22.60;21.80;;;19.60;46.70;;;;;;5070858;28;20630;-44
2022/03/14 02:57:04;;;;;;;22.70;21.90;;;19.60;46.70;;;;;;5070706;28;20447;-47
2022/03/14 02:59:31;;;;;;;23.20;22.40;;;19.60;46.70;;;;;;5070916;28;20447;-48
2022/03/14 03:01:57;;;;;;;24.40;23.50;;;19.60;46.70;;;;;;5070973;28;20447;-44
2022/03/14 03:04:24;;;;;;;22.40;21.60;;;19.60;46.70;;;;;;5070613;28;20474;-44
2022/03/14 03:06:52;;;;;;;24.63;23.73;;;19.60;46.70;;;;;;5070489;28;20443;-50
2022/03/14 03:09:19;;;;;;;22.70;21.90;;;19.60;46.80;;;;;;5072321;28;20455;-49
2022/03/14 03:11:47;;;;;;;22.90;22.10;;;19.60;46.80;;;;;;5074402;28;20448;-44
2022/03/14 03:14:14;;;;;;;24.03;23.23;;;19.50;46.70;;;;;;5074151;28;20857;-45
2022/03/14 03:16:42;;;;;;;22.67;21.87;;;19.50;46.80;;;;;;5074279;28;20455;-45
2022/03/14 03:19:08;;;;;;;22.60;21.80;;;19.50;46.90;;;;;;5073986;28;20535;-44
2022/03/14 03:21:39;;;;;;;26.50;25.60;;;19.50;46.90;;;;;;5074257;28;20974;-51
2022/03/14 03:24:08;;;;;;;24.30;23.40;;;19.40;47.00;;;;;;5073958;28;20532;-48
2022/03/14 03:26:35;;;;;;;25.27;24.27;;;19.40;47.00;;;;;;5073970;28;20439;-44
2022/03/14 03:29:03;;;;;;;24.97;24.07;;;19.40;47.10;;;;;;5073859;28;20490;-47
2022/03/14 03:31:30;;;;;;;24.27;23.47;;;19.30;47.10;;;;;;5073812;28;20439;-45
2022/03/14 03:33:57;;;;;;;25.53;24.63;;;19.30;47.20;;;;;;5073964;28;20471;-44
2022/03/14 03:36:24;;;;;;;26.20;25.20;;;19.30;47.30;;;;;;5073881;28;20444;-52
2022/03/14 03:38:51;;;;;;;25.53;24.60;;;19.30;47.30;;;;;;5073923;28;20452;-44
2022/03/14 03:41:17;;;;;;;26.10;25.10;;;19.30;47.50;;;;;;5073991;28;20454;-44
2022/03/14 03:43:44;;;;;;;25.83;24.93;;;19.20;47.40;;;;;;5073607;28;20486;-47
2022/03/14 03:46:12;;;;;;;25.70;24.80;;;19.30;47.50;;;;;;5073886;28;20443;-44
2022/03/14 03:48:39;;;;;;;25.30;24.40;;;19.20;47.40;;;;;;5073896;28;20826;-44
2022/03/14 03:51:06;;;;;;;26.13;25.13;;;19.20;47.40;;;;;;5073835;28;20837;-49
2022/03/14 03:53:33;;;;;;;26.20;25.30;;;19.30;47.50;;;;;;5073472;28;20470;-45
2022/03/14 03:55:59;;;;;;;26.20;25.20;;;19.30;47.40;;;;;;5073901;28;20459;-44
2022/03/14 03:58:26;;;;;;;26.47;25.47;;;19.30;47.50;;;;;;5073334;28;20470;-51
2022/03/14 04:00:53;;;;;;;25.03;24.13;;;19.20;47.50;;;;;;5073417;28;20459;-44
2022/03/14 04:03:21;;;;;;;27.20;26.20;;;19.20;47.70;;;;;;5073274;28;20517;-44
2022/03/14 04:05:48;;;;;;;27.30;26.30;;;19.20;47.90;;;;;;5073635;28;20833;-44
2022/03/14 04:08:15;;;;;;;26.30;25.40;;;19.20;48.00;;;;;;5073266;28;20452;-45
2022/03/14 04:10:43;;;;;;;25.90;25.00;;;19.20;48.10;;;;;;5073354;28;21014;-44
2022/03/14 04:13:10;;;;;;;26.67;25.57;;;19.20;48.10;;;;;;5073092;28;20535;-45
2022/03/14 04:15:40;;;;;;;26.77;25.77;;;19.20;48.20;;;;;;5073327;28;20479;-44
2022/03/14 04:18:07;;;;;;;26.43;25.43;;;19.20;48.20;;;;;;5073095;28;20451;-51
2022/03/14 04:20:36;;;;;;;27.03;26.03;;;19.20;48.30;;;;;;5072795;28;20446;-44
2022/03/14 04:23:02;;;;;;;27.30;26.30;;;19.20;48.20;;;;;;5072882;28;20487;-46
2022/03/14 04:25:29;;;;;;;26.67;25.67;;;19.20;48.30;;;;;;5072864;28;20446;-47
2022/03/14 04:27:56;;;;;;;27.70;26.60;;;19.30;48.30;;;;;;5072996;28;20942;-44
2022/03/14 04:30:23;;;;;;;25.70;24.80;;;19.30;48.30;;;;;;5072949;28;20443;-45
2022/03/14 04:32:50;;;;;;;27.50;26.50;;;19.20;48.20;;;;;;5072716;28;20482;-45
2022/03/14 04:35:16;;;;;;;27.03;26.03;;;19.30;48.20;;;;;;5072627;28;20470;-44
2022/03/14 04:37:44;;;;;;;24.40;23.50;;;19.20;48.10;;;;;;5072877;28;20802;-44
2022/03/14 04:40:13;;;;;;;25.27;24.33;;;19.30;48.20;;;;;;5072803;28;20626;-44
2022/03/14 04:42:40;;;;;;;27.30;26.30;;;19.30;48.20;;;;;;5072445;28;20479;-45
2022/03/14 04:45:09;;;;;;;26.50;25.50;;;19.30;48.20;;;;;;5072336;28;20781;-44
2022/03/14 04:47:36;;;;;;;28.30;27.20;;;19.30;48.20;;;;;;5072769;28;20458;-46
2022/03/14 04:50:03;;;;;;;26.47;25.37;;;19.30;48.20;;;;;;5072525;28;20451;-44
2022/03/14 04:52:30;;;;;;;26.60;25.60;;;19.30;48.10;;;;;;5072449;28;20479;-46
2022/03/14 04:54:59;;;;;;;26.40;25.40;;;19.30;48.20;;;;;;5072296;28;20472;-46
2022/03/14 04:57:26;;;;;;;26.93;25.83;;;19.30;48.20;;;;;;5071202;28;20523;-44
2022/03/14 04:59:52;;;;;;;28.63;27.43;;;19.30;48.10;;;;;;5072018;28;20451;-45
2022/03/14 05:02:22;;;;;;;31.37;30.07;;;19.30;48.10;;;;;;5072329;28;20443;-44
2022/03/14 05:04:49;;;;;;;30.83;29.63;;;19.30;48.20;;;;;;5072050;28;20971;-45
2022/03/14 05:07:16;;;;;;;29.63;28.47;;;19.20;48.10;;;;;;5072311;28;20444;-44
2022/03/14 05:09:43;;;;;;;29.60;28.50;;;19.30;48.20;;;;;;5072011;28;20448;-46
2022/03/14 05:12:12;;;;;;;29.50;28.40;;;19.20;48.10;;;;;;5072255;28;20440;-45
2022/03/14 05:14:40;;;;;;;30.13;29.03;;;19.20;48.20;;;;;;5071736;28;20521;-44
2022/03/14 05:17:07;;;;;;;28.73;27.63;;;19.20;48.30;;;;;;5072077;28;20584;-47
2022/03/14 05:19:34;;;;;;;30.30;29.20;;;19.20;48.30;;;;;;5071852;28;20435;-45
2022/03/14 05:22:01;;;;;;;29.03;27.93;;;19.20;48.30;;;;;;5071831;28;21086;-50
2022/03/14 05:24:28;;;;;;;26.37;25.37;;;19.20;48.40;;;;;;5071763;28;20491;-45
2022/03/14 05:26:55;;;;;;;28.83;27.70;;;19.20;48.70;;;;;;5071992;28;20546;-44
2022/03/14 05:29:23;;;;;;;27.83;26.73;;;19.20;48.50;;;;;;5071591;28;20483;-45
2022/03/14 05:31:50;;;;;;;28.70;27.60;;;19.10;48.40;;;;;;5071218;28;20447;-44
2022/03/14 05:34:17;;;;;;;29.83;28.70;;;19.10;48.50;;;;;;5071700;28;20462;-48
2022/03/14 05:36:44;;;;;;;30.50;29.40;;;19.10;48.60;;;;;;5071880;28;20501;-44
2022/03/14 05:39:11;;;;;;;27.33;26.23;;;19.10;48.60;;;;;;5071603;28;20442;-50
2022/03/14 05:41:38;;;;;;;28.53;27.43;;;19.10;48.70;;;;;;5071650;28;20455;-44
2022/03/14 05:44:05;;;;;;;26.87;25.77;;;19.00;48.70;;;;;;5071408;28;21002;-44
2022/03/14 05:46:33;;;;;;;27.47;26.37;;;19.00;48.80;;;;;;5071720;28;20440;-44
2022/03/14 05:49:00;;;;;;;28.17;27.07;;;18.90;48.80;;;;;;5071762;28;20953;-45
2022/03/14 05:51:27;;;;;;;31.57;30.03;;;19.00;48.90;;;;;;5071292;28;20475;-44
2022/03/14 05:53:54;;;;;;;30.13;28.93;;;19.00;49.40;;;;;;5070519;28;20517;-44
2022/03/14 05:56:21;;;;;;;29.43;28.13;;;19.00;50.10;;;;;;5071353;28;20554;-44
2022/03/14 05:58:48;;;;;;;26.40;25.40;;;18.90;50.70;;;;;;5071560;28;20448;-45
2022/03/14 06:01:14;;;;;;;26.73;25.70;;;19.00;50.80;;;;;;5071382;28;20443;-45
2022/03/14 06:03:44;;;;;;;28.70;27.50;;;19.00;50.60;;;;;;5071180;28;20574;-45
2022/03/14 06:06:11;;;;;;;29.20;28.10;;;19.10;50.40;;;;;;5071380;28;20804;-44
2022/03/14 06:08:37;;;;;;;28.27;27.17;;;19.10;50.10;;;;;;5071524;28;20866;-44
2022/03/14 06:11:05;;;;;;;29.07;27.97;;;19.20;49.90;;;;;;5071295;28;20448;-46
2022/03/14 06:13:32;;;;;;;29.60;28.30;;;19.30;49.60;;;;;;5071674;28;20471;-46
2022/03/14 06:15:59;;;;;;;30.10;28.90;;;19.30;49.20;;;;;;5071312;28;20447;-44
2022/03/14 06:18:26;;;;;;;30.00;28.90;;;19.40;49.00;;;;;;5071355;28;20950;-44
2022/03/14 06:20:54;;;;;;;28.63;27.53;;;19.40;48.70;;;;;;5071140;28;20454;-45
2022/03/14 06:23:20;;;;;;;28.00;26.90;;;19.40;48.50;;;;;;5071039;28;20483;-45
2022/03/14 06:25:49;;;;;;;28.53;27.43;;;19.40;48.30;;;;;;5071296;28;20822;-45
2022/03/14 06:28:16;;;;;;;29.87;28.53;;;19.50;48.20;;;;;;5071165;28;20546;-43
2022/03/14 06:30:42;;;;;;;30.07;28.97;;;19.40;48.00;;;;;;5071191;28;20439;-48
2022/03/14 06:33:09;;;;;;;29.13;28.03;;;19.40;47.90;;;;;;5071129;28;20451;-45
2022/03/14 06:35:37;;;;;;;26.90;25.90;;;19.40;47.80;;;;;;5071169;28;20443;-44
2022/03/14 06:38:05;;;;;;;27.93;26.83;;;19.40;47.80;;;;;;5071196;28;20448;-44
2022/03/14 06:40:32;;;;;;;27.00;26.00;;;19.30;47.80;;;;;;5071055;28;20455;-44
2022/03/14 06:42:59;;;;;;;27.67;26.57;;;19.30;47.80;;;;;;5071766;28;20807;-51
2022/03/14 06:45:26;;;;;;;29.80;28.70;;;19.30;47.70;;;;;;5074963;28;20454;-44
2022/03/14 06:47:54;;;;;;;27.57;26.50;;;19.30;47.70;;;;;;5074975;28;20897;-50
2022/03/14 06:50:21;;;;;;;28.10;27.03;;;19.30;47.60;;;;;;5074719;28;20818;-50
2022/03/14 06:52:49;;;;;;;28.73;27.63;;;19.30;47.50;;;;;;5074774;28;20447;-44
2022/03/14 06:55:17;;;;;;;26.87;25.87;;;19.30;47.40;;;;;;5074740;28;20459;-43
2022/03/14 06:57:44;;;;;;;27.70;26.50;;;19.30;47.40;;;;;;5074688;28;20443;-45
2022/03/14 07:00:11;;;;;;;27.30;26.30;;;19.30;47.30;;;;;;5074813;28;20454;-44
2022/03/14 07:02:40;;;;;;;29.17;28.10;;;19.30;47.30;;;;;;5074510;28;20814;-44
2022/03/14 07:05:08;;;;;;;29.17;27.97;;;19.30;47.20;;;;;;5074424;28;20911;-44
2022/03/14 07:07:35;;;;;;;28.83;27.73;;;19.30;47.20;;;;;;5074409;28;20447;-44
2022/03/14 07:10:01;;;;;;;27.63;26.53;;;19.30;47.20;;;;;;5074406;28;20478;-48
2022/03/14 07:12:29;;;;;;;28.63;27.53;;;19.30;47.20;;;;;;5074420;28;20452;-44
2022/03/14 07:14:56;;;;;;;29.00;27.80;;;19.30;47.10;;;;;;5074160;28;20473;-44
2022/03/14 07:17:24;;;;;;;28.30;26.87;;;19.20;47.00;;;;;;5074399;28;20804;-48
2022/03/14 07:19:52;;;;;;;31.10;29.80;;;19.20;47.10;;;;;;5074300;28;20542;-44
2022/03/14 07:22:19;;;;;;;29.17;27.97;;;19.20;47.00;;;;;;5074193;28;20454;-44
2022/03/14 07:24:47;;;;;;;28.77;27.63;;;19.20;47.00;;;;;;5073943;28;20849;-45
2022/03/14 07:27:15;;;;;;;29.73;28.63;;;19.20;47.00;;;;;;5074031;28;20451;-51
2022/03/14 07:29:43;;;;;;;30.10;28.90;;;19.20;47.00;;;;;;5074286;28;20447;-44
2022/03/14 07:32:10;;;;;;;30.40;29.20;;;19.20;47.00;;;;;;5074055;28;20447;-44
2022/03/14 07:34:37;;;;;;;29.57;28.37;;;19.20;47.00;;;;;;5073918;28;20463;-44
2022/03/14 07:37:04;;;;;;;30.70;29.60;;;19.10;46.90;;;;;;5074066;28;20447;-44
2022/03/14 07:39:31;;;;;;;29.70;28.60;;;19.10;47.00;;;;;;5073903;28;20759;-45
2022/03/14 07:41:57;;;;;;;31.67;30.47;;;19.10;47.00;;;;;;5073891;28;20976;-44
2022/03/14 07:44:24;;;;;;;33.27;31.97;;;19.10;47.00;;;;;;5073621;28;20486;-49
2022/03/14 07:46:52;;;;;;;29.60;28.50;;;19.10;46.90;;;;;;5073744;28;20783;-45
2022/03/14 07:49:20;;;;;;;32.83;31.63;;;19.10;46.90;;;;;;5073860;28;20444;-44
2022/03/14 07:51:47;;;;;;;31.60;30.40;;;19.20;46.90;;;;;;5073676;28;20808;-47
2022/03/14 07:54:14;;;;;;;30.93;29.60;;;19.10;46.70;;;;;;5073062;28;20797;-44
2022/03/14 07:56:42;;;;;;;36.50;35.10;;;19.10;46.70;;;;;;5073460;28;20570;-44
2022/03/14 07:59:09;;;;;;;30.70;29.50;;;19.20;46.70;;;;;;5073545;28;20959;-44
2022/03/14 08:01:36;;;;;;;29.90;28.70;;;19.20;46.70;;;;;;5073405;28;20520;-44
2022/03/14 08:04:05;;;;;;;29.90;28.70;;;19.20;46.60;;;;;;5073280;28;20487;-48
2022/03/14 08:06:41;;;;;;;30.63;29.43;;;19.20;46.50;;;;;;5073396;28;20863;-44
2022/03/14 08:09:08;;;;;;;30.07;28.97;;;19.20;46.60;;;;;;5073429;28;20532;-44
2022/03/14 08:11:35;;;;;;;30.63;29.43;;;19.20;46.50;;;;;;5072793;28;20443;-44
2022/03/14 08:14:02;;;;;;;32.20;31.00;;;19.20;46.50;;;;;;5072791;28;20502;-44
2022/03/14 08:16:29;;;;;;;31.67;30.43;;;19.20;46.50;;;;;;5073325;28;20463;-44
2022/03/14 08:18:55;;;;;;;30.37;29.17;;;19.20;46.40;;;;;;5073349;28;20447;-47
2022/03/14 08:21:23;;;;;;;30.37;29.17;;;19.20;46.30;;;;;;5073066;28;20452;-44
2022/03/14 08:23:50;;;;;;;30.67;29.47;;;19.20;46.20;;;;;;5072960;28;20483;-44
2022/03/14 08:26:18;;;;;;;30.50;29.30;;;19.20;46.20;;;;;;5073075;28;20453;-50
2022/03/14 08:28:45;;;;;;;28.57;27.37;;;19.20;46.10;;;;;;5072954;28;20470;-44
2022/03/14 08:31:12;;;;;;;29.20;28.10;;;19.20;46.10;;;;;;5072977;28;20931;-49
2022/03/14 08:33:39;;;;;;;32.43;31.13;;;19.20;46.10;;;;;;5072782;28;20470;-45
2022/03/14 08:36:06;;;;;;;31.50;30.30;;;19.20;46.10;;;;;;5072885;28;20447;-46
2022/03/14 08:38:35;;;;;;;31.53;30.33;;;19.20;46.20;;;;;;5072921;28;20447;-45
2022/03/14 08:41:01;;;;;;;31.50;30.20;;;19.20;46.20;;;;;;5072599;28;21008;-46
2022/03/14 08:43:28;;;;;;;30.43;29.23;;;19.30;46.10;;;;;;5072499;28;20970;-46
2022/03/14 08:45:56;;;;;;;30.90;29.73;;;19.40;46.00;;;;;;5072749;28;20989;-45
2022/03/14 08:48:23;;;;;;;30.10;28.90;;;19.60;45.90;;;;;;5072688;28;20809;-46
2022/03/14 08:50:50;;;;;;;29.80;28.70;;;19.70;45.50;;;;;;5072564;28;20450;-45
2022/03/14 08:53:17;;;;;;;30.13;29.03;;;19.90;45.30;;;;;;5072406;28;20963;-46
2022/03/14 08:55:45;;;;;;;30.90;29.70;;;19.90;44.90;;;;;;5072442;28;20455;-48
2022/03/14 08:58:11;;;;;;;30.57;29.37;;;20.00;44.80;;;;;;5072401;28;20450;-46
2022/03/14 09:00:38;;;;;;;30.13;29.03;;;20.00;44.60;;;;;;5072463;28;20447;-49
2022/03/14 09:03:05;;;;;;;29.80;28.70;;;20.00;44.50;;;;;;5072057;28;20447;-46
2022/03/14 09:05:32;;;;;;;27.90;26.90;;;20.10;44.50;;;;;;5072065;28;20486;-45
2022/03/14 09:07:58;;;;;;;30.00;28.80;;;20.10;44.30;;;;;;5071461;28;20950;-49
2022/03/14 09:10:25;;;;;;;28.80;27.60;;;20.10;44.20;;;;;;5072069;28;20444;-46
2022/03/14 09:12:53;;;;;;;31.20;30.00;;;20.20;44.20;;;;;;5072063;28;20479;-45
2022/03/14 09:15:21;;;;;;;30.93;29.67;;;20.20;44.10;;;;;;5072033;28;20475;-45
2022/03/14 09:17:49;;;;;;;29.30;28.20;;;20.20;44.00;;;;;;5072079;28;20451;-45
2022/03/14 09:20:17;;;;;;;30.20;29.10;;;20.30;44.00;;;;;;5072085;28;20542;-45
2022/03/14 09:22:45;;;;;;;30.60;29.50;;;20.30;43.80;;;;;;5072009;28;20451;-45
2022/03/14 09:25:14;;;;;;;30.83;29.53;;;20.30;43.80;;;;;;5071770;28;20487;-45
2022/03/14 09:27:41;;;;;;;29.57;28.27;;;20.30;43.70;;;;;;5072048;28;20543;-45
2022/03/14 09:30:11;;;;;;;30.80;29.60;;;20.30;43.60;;;;;;5071760;28;20966;-46
2022/03/14 09:32:38;;;;;;;30.20;29.00;;;20.30;43.50;;;;;;5071691;28;20447;-48
2022/03/14 09:35:06;;;;;;;29.27;28.07;;;20.30;43.50;;;;;;5071850;28;20460;-45
2022/03/14 09:37:34;;;;;;;29.30;28.20;;;20.30;43.50;;;;;;5072128;28;20670;-45
2022/03/14 09:40:00;;;;;;;29.77;28.67;;;20.30;43.50;;;;;;5071754;28;20546;-45
2022/03/14 09:42:29;;;;;;;29.70;28.60;;;20.20;43.50;;;;;;5071715;28;20443;-51
2022/03/14 09:44:58;;;;;;;31.20;29.93;;;20.20;43.60;;;;;;5071354;28;20827;-47
2022/03/14 09:47:27;;;;;;;29.67;28.57;;;20.10;43.60;;;;;;5071684;28;20450;-45
2022/03/14 09:49:55;;;;;;;30.33;29.13;;;20.00;43.70;;;;;;5071650;28;20443;-46
2022/03/14 09:52:22;;;;;;;30.73;29.60;;;20.00;43.80;;;;;;5071585;28;20466;-49
2022/03/14 09:54:50;;;;;;;29.30;28.20;;;20.10;43.90;;;;;;5071369;28;20489;-45
2022/03/14 09:57:17;;;;;;;30.30;29.10;;;20.00;43.70;;;;;;5071623;28;20443;-46
2022/03/14 09:59:44;;;;;;;28.53;27.43;;;20.10;43.70;;;;;;5071545;28;20951;-52
2022/03/14 10:02:13;;;;;;;31.80;30.60;;;20.10;43.60;;;;;;5071457;28;20439;-45
2022/03/14 10:04:41;;;;;;;30.50;29.30;;;20.20;43.60;;;;;;5071290;28;20483;-45
2022/03/14 10:07:08;;;;;;;29.90;28.80;;;20.30;43.50;;;;;;5071415;28;20439;-51
2022/03/14 10:09:36;;;;;;;30.40;29.27;;;20.30;43.40;;;;;;5071368;28;20454;-45
2022/03/14 10:12:04;;;;;;;31.27;30.07;;;20.30;43.20;;;;;;5071402;28;20455;-45
2022/03/14 10:14:31;;;;;;;30.20;29.00;;;20.40;43.20;;;;;;5071046;28;20562;-46
2022/03/14 10:16:59;;;;;;;31.43;30.23;;;20.40;43.10;;;;;;5071484;28;20439;-45
2022/03/14 10:19:31;;;;;;;32.77;31.47;;;20.40;43.10;;;;;;5074747;28;20444;-45
2022/03/14 10:22:13;;;;;;;29.53;28.43;;;20.40;43.00;;;;;;5075455;28;20451;-45
2022/03/14 10:24:40;;;;;;;30.20;29.10;;;20.40;43.00;;;;;;5075267;28;20510;-45
2022/03/14 10:27:07;;;;;;;30.00;28.80;;;20.40;42.90;;;;;;5075382;28;20448;-46
2022/03/14 10:29:36;;;;;;;31.60;30.40;;;20.40;42.90;;;;;;5075265;28;20474;-45
2022/03/14 10:32:18;;;;;;;30.40;29.20;;;20.30;42.90;;;;;;5075351;28;20455;-47
2022/03/14 10:34:51;;;;;;;29.70;28.60;;;20.30;43.00;;;;;;5075062;28;20549;-49
2022/03/14 10:37:19;;;;;;;30.60;29.40;;;20.20;43.00;;;;;;5074727;28;20957;-46
2022/03/14 10:39:46;;;;;;;29.87;28.77;;;20.20;43.10;;;;;;5074620;28;20450;-45
2022/03/14 10:42:15;;;;;;;32.17;30.97;;;20.20;43.20;;;;;;5075149;28;20478;-49
2022/03/14 10:44:43;;;;;;;32.30;31.00;;;20.20;43.20;;;;;;5074747;28;20486;-45
2022/03/14 10:47:13;;;;;;;32.03;30.83;;;20.20;43.80;;;;;;5074712;28;20817;-45
2022/03/14 10:49:43;;;;;;;29.40;28.30;;;20.20;44.80;;;;;;5075011;28;20789;-45
2022/03/14 10:52:13;;;;;;;31.37;30.17;;;20.20;45.50;;;;;;5074842;28;20448;-48
2022/03/14 10:54:42;;;;;;;31.97;30.77;;;20.30;45.80;;;;;;5074669;28;21043;-45
2022/03/14 10:57:11;;;;;;;32.43;31.23;;;20.20;45.90;;;;;;5074606;28;20466;-45
2022/03/14 10:59:40;;;;;;;30.70;29.50;;;20.20;46.20;;;;;;5074630;28;20534;-45
2022/03/14 11:02:09;;;;;;;30.83;29.70;;;20.20;46.30;;;;;;5074689;28;21003;-44
2022/03/14 11:04:43;;;;;;;28.60;27.50;;;20.30;46.20;;;;;;5074483;28;20498;-48
2022/03/14 11:07:10;;;;;;;31.90;30.60;;;20.40;46.40;;;;;;5074302;28;20941;-46
2022/03/14 11:09:39;;;;;;;30.83;29.43;;;20.30;46.30;;;;;;5074499;28;20450;-44
2022/03/14 11:12:08;;;;;;;33.07;31.77;;;20.40;46.30;;;;;;5074650;28;20815;-45
2022/03/14 11:14:35;;;;;;;29.60;28.40;;;20.60;46.30;;;;;;5074205;28;20475;-45
2022/03/14 11:17:17;;;;;;;31.47;30.30;;;20.70;46.10;;;;;;5074240;28;20493;-45
2022/03/14 11:19:44;;;;;;;29.30;28.20;;;20.90;45.90;;;;;;5074472;28;20454;-47
2022/03/14 11:22:13;;;;;;;30.50;29.30;;;21.00;45.60;;;;;;5074254;28;20926;-45
2022/03/14 11:24:42;;;;;;;31.53;30.20;;;21.10;45.70;;;;;;5074046;28;20463;-46
2022/03/14 11:27:17;;;;;;;30.37;29.27;;;21.10;45.40;;;;;;5074007;28;20447;-47
2022/03/14 11:29:46;;;;;;;31.10;29.90;;;21.10;45.40;;;;;;5073322;28;20458;-47
2022/03/14 11:32:15;;;;;;;29.10;28.10;;;21.20;45.40;;;;;;5074206;28;20455;-45
2022/03/14 11:34:42;;;;;;;28.80;27.70;;;21.30;45.30;;;;;;5073852;28;20474;-45
2022/03/14 11:37:10;;;;;;;28.63;27.53;;;21.50;45.20;;;;;;5073807;28;20801;-45
2022/03/14 11:39:37;;;;;;;30.47;29.27;;;21.70;45.10;;;;;;5074157;28;20443;-46
2022/03/14 11:42:05;;;;;;;30.80;29.60;;;22.00;44.70;;;;;;5073996;28;20448;-49
2022/03/14 11:44:35;;;;;;;30.63;29.43;;;22.40;44.30;;;;;;5073577;28;20455;-45
2022/03/14 11:47:03;;;;;;;31.40;30.00;;;22.70;43.50;;;;;;5073474;28;20800;-46
2022/03/14 11:49:31;;;;;;;33.50;32.20;;;23.60;42.80;;;;;;5073859;28;20444;-46
2022/03/14 11:52:07;;;;;;;32.43;31.23;;;25.10;41.00;;;;;;5073727;28;20447;-46
2022/03/14 11:54:40;;;;;;;32.23;30.93;;;25.00;39.20;;;;;;5073541;28;20834;-47
2022/03/14 11:57:08;;;;;;;31.10;29.90;;;25.10;39.10;;;;;;5073724;28;20864;-45
2022/03/14 11:59:37;;;;;;;28.63;27.53;;;24.70;38.60;;;;;;5073574;28;20450;-46
2022/03/14 12:02:05;;;;;;;27.50;26.40;;;24.30;38.80;;;;;;5073519;28;20470;-46
2022/03/14 12:04:34;;;;;;;29.33;28.13;;;24.10;39.10;;;;;;5073444;28;20463;-46
2022/03/14 12:07:13;;;;;;;32.80;31.63;;;24.30;39.20;;;;;;5073475;28;20439;-46
2022/03/14 12:09:49;;;;;;;29.77;28.63;;;25.30;38.60;;;;;;5073439;28;20450;-46
2022/03/14 12:12:32;;;;;;;30.13;28.93;;;26.00;38.00;;;;;;5073447;28;20479;-51
2022/03/14 12:15:01;;;;;;;29.20;28.00;;;26.50;36.10;;;;;;5096061;22;20979;-48
2022/03/14 12:17:33;;;;;;;31.37;30.17;;;25.80;35.90;;;;;;5061451;28;20436;-48
2022/03/14 12:20:03;;;;;;;27.87;26.87;;;25.20;36.40;;;;;;5053282;28;20447;-47
2022/03/14 12:22:46;;;;;;;30.33;29.23;;;24.70;37.10;;;;;;5053192;28;20440;-48
2022/03/14 12:25:26;;;;;;;29.80;28.63;;;25.30;37.90;;;;;;5051161;28;20978;-48
2022/03/14 12:27:53;;;;;;;30.70;29.40;;;25.50;36.80;;;;;;5053062;28;20440;-47
2022/03/14 12:30:34;;;;;;;28.00;26.90;;;24.80;36.90;;;;;;5053125;28;20544;-48